sensor_id;sensor_type;location;lat;lon;timestamp;P1;durP1;ratioP1;P2;durP2;ratioP2
70532;SDS011;58088;51.186;17.130;2023-11-21T00:02:08;6.60;;;1.90;;
70532;SDS011;58088;51.186;17.130;2023-11-21T00:04:34;5.80;;;2.30;;
70532;SDS011;58088;51.186;17.130;2023-11-21T00:07:00;7.20;;;2.20;;
70532;SDS011;58088;51.186;17.130;2023-11-21T00:09:26;7.10;;;2.30;;
70532;SDS011;58088;51.186;17.130;2023-11-21T00:11:53;6.10;;;2.00;;
70532;SDS011;58088;51.186;17.130;2023-11-21T00:14:19;6.30;;;2.00;;
70532;SDS011;58088;51.186;17.130;2023-11-21T00:16:45;4.80;;;1.80;;
70532;SDS011;58088;51.186;17.130;2023-11-21T00:19:11;7.90;;;1.80;;
70532;SDS011;58088;51.186;17.130;2023-11-21T00:21:38;6.70;;;2.10;;
70532;SDS011;58088;51.186;17.130;2023-11-21T00:24:04;5.20;;;1.80;;
70532;SDS011;58088;51.186;17.130;2023-11-21T00:26:30;6.50;;;2.50;;
70532;SDS011;58088;51.186;17.130;2023-11-21T00:29:03;7.60;;;2.40;;
70532;SDS011;58088;51.186;17.130;2023-11-21T00:31:29;6.70;;;2.10;;
70532;SDS011;58088;51.186;17.130;2023-11-21T00:33:56;7.50;;;2.50;;
70532;SDS011;58088;51.186;17.130;2023-11-21T00:36:23;5.80;;;1.80;;
70532;SDS011;58088;51.186;17.130;2023-11-21T00:38:49;5.40;;;2.10;;
70532;SDS011;58088;51.186;17.130;2023-11-21T00:41:15;7.10;;;2.20;;
70532;SDS011;58088;51.186;17.130;2023-11-21T00:43:41;7.10;;;1.40;;
70532;SDS011;58088;51.186;17.130;2023-11-21T00:46:07;7.90;;;2.10;;
70532;SDS011;58088;51.186;17.130;2023-11-21T00:48:33;6.10;;;1.90;;
70532;SDS011;58088;51.186;17.130;2023-11-21T00:50:59;5.80;;;1.60;;
70532;SDS011;58088;51.186;17.130;2023-11-21T00:53:26;7.60;;;2.10;;
70532;SDS011;58088;51.186;17.130;2023-11-21T00:55:52;7.00;;;2.00;;
70532;SDS011;58088;51.186;17.130;2023-11-21T00:58:25;6.90;;;2.20;;
70532;SDS011;58088;51.186;17.130;2023-11-21T01:00:52;6.20;;;1.70;;
70532;SDS011;58088;51.186;17.130;2023-11-21T01:03:18;7.40;;;2.20;;
70532;SDS011;58088;51.186;17.130;2023-11-21T01:05:45;8.50;;;2.10;;
70532;SDS011;58088;51.186;17.130;2023-11-21T01:08:12;6.40;;;1.90;;
70532;SDS011;58088;51.186;17.130;2023-11-21T01:10:38;5.20;;;1.70;;
70532;SDS011;58088;51.186;17.130;2023-11-21T01:13:04;5.60;;;2.00;;
70532;SDS011;58088;51.186;17.130;2023-11-21T01:15:31;5.40;;;1.80;;
70532;SDS011;58088;51.186;17.130;2023-11-21T01:17:58;5.80;;;1.80;;
70532;SDS011;58088;51.186;17.130;2023-11-21T01:20:24;5.80;;;1.80;;
70532;SDS011;58088;51.186;17.130;2023-11-21T01:22:52;5.30;;;1.60;;
70532;SDS011;58088;51.186;17.130;2023-11-21T01:25:20;6.30;;;1.80;;
70532;SDS011;58088;51.186;17.130;2023-11-21T01:27:49;10.60;;;2.30;;
70532;SDS011;58088;51.186;17.130;2023-11-21T01:30:15;6.70;;;1.70;;
70532;SDS011;58088;51.186;17.130;2023-11-21T01:32:42;7.30;;;1.80;;
70532;SDS011;58088;51.186;17.130;2023-11-21T01:35:09;7.00;;;2.10;;
70532;SDS011;58088;51.186;17.130;2023-11-21T01:37:37;5.60;;;1.80;;
70532;SDS011;58088;51.186;17.130;2023-11-21T01:40:04;4.70;;;1.30;;
70532;SDS011;58088;51.186;17.130;2023-11-21T01:42:35;3.70;;;1.30;;
70532;SDS011;58088;51.186;17.130;2023-11-21T01:45:03;6.40;;;1.70;;
70532;SDS011;58088;51.186;17.130;2023-11-21T01:47:32;7.20;;;1.90;;
70532;SDS011;58088;51.186;17.130;2023-11-21T01:49:59;5.20;;;1.70;;
70532;SDS011;58088;51.186;17.130;2023-11-21T01:52:27;6.20;;;1.80;;
70532;SDS011;58088;51.186;17.130;2023-11-21T01:54:57;5.20;;;1.50;;
70532;SDS011;58088;51.186;17.130;2023-11-21T01:57:26;6.30;;;1.80;;
70532;SDS011;58088;51.186;17.130;2023-11-21T01:59:54;4.10;;;1.50;;
70532;SDS011;58088;51.186;17.130;2023-11-21T02:02:21;4.70;;;1.60;;
70532;SDS011;58088;51.186;17.130;2023-11-21T02:04:48;4.50;;;1.60;;
70532;SDS011;58088;51.186;17.130;2023-11-21T02:07:15;4.40;;;1.40;;
70532;SDS011;58088;51.186;17.130;2023-11-21T02:09:41;7.50;;;1.70;;
70532;SDS011;58088;51.186;17.130;2023-11-21T02:12:09;4.40;;;1.40;;
70532;SDS011;58088;51.186;17.130;2023-11-21T02:14:36;8.00;;;1.80;;
70532;SDS011;58088;51.186;17.130;2023-11-21T02:17:03;6.40;;;1.80;;
70532;SDS011;58088;51.186;17.130;2023-11-21T02:19:31;4.20;;;1.50;;
70532;SDS011;58088;51.186;17.130;2023-11-21T02:21:59;5.30;;;1.50;;
70532;SDS011;58088;51.186;17.130;2023-11-21T02:24:32;4.50;;;1.80;;
70532;SDS011;58088;51.186;17.130;2023-11-21T02:26:58;6.20;;;1.40;;
70532;SDS011;58088;51.186;17.130;2023-11-21T02:29:24;7.20;;;1.80;;
70532;SDS011;58088;51.186;17.130;2023-11-21T02:31:55;4.40;;;1.30;;
70532;SDS011;58088;51.186;17.130;2023-11-21T02:34:22;7.30;;;1.70;;
70532;SDS011;58088;51.186;17.130;2023-11-21T02:36:51;4.40;;;1.70;;
70532;SDS011;58088;51.186;17.130;2023-11-21T02:39:17;7.90;;;2.20;;
70532;SDS011;58088;51.186;17.130;2023-11-21T02:41:44;4.90;;;1.60;;
70532;SDS011;58088;51.186;17.130;2023-11-21T02:44:10;4.30;;;1.10;;
70532;SDS011;58088;51.186;17.130;2023-11-21T02:46:37;5.00;;;1.10;;
70532;SDS011;58088;51.186;17.130;2023-11-21T02:49:04;3.20;;;0.90;;
70532;SDS011;58088;51.186;17.130;2023-11-21T02:51:33;4.20;;;1.30;;
70532;SDS011;58088;51.186;17.130;2023-11-21T02:53:59;4.50;;;1.50;;
70532;SDS011;58088;51.186;17.130;2023-11-21T02:56:28;7.50;;;1.60;;
70532;SDS011;58088;51.186;17.130;2023-11-21T02:58:59;4.90;;;1.30;;
70532;SDS011;58088;51.186;17.130;2023-11-21T03:04:52;5.50;;;1.20;;
70532;SDS011;58088;51.186;17.130;2023-11-21T03:07:20;5.30;;;1.30;;
70532;SDS011;58088;51.186;17.130;2023-11-21T03:09:47;6.30;;;1.70;;
70532;SDS011;58088;51.186;17.130;2023-11-21T03:12:13;4.40;;;1.70;;
70532;SDS011;58088;51.186;17.130;2023-11-21T03:14:40;5.50;;;1.80;;
70532;SDS011;58088;51.186;17.130;2023-11-21T03:17:06;5.70;;;1.60;;
70532;SDS011;58088;51.186;17.130;2023-11-21T03:19:32;5.10;;;1.60;;
70532;SDS011;58088;51.186;17.130;2023-11-21T03:21:59;5.30;;;1.80;;
70532;SDS011;58088;51.186;17.130;2023-11-21T03:24:25;6.90;;;1.90;;
70532;SDS011;58088;51.186;17.130;2023-11-21T03:26:52;5.70;;;2.10;;
70532;SDS011;58088;51.186;17.130;2023-11-21T03:29:18;5.50;;;2.20;;
70532;SDS011;58088;51.186;17.130;2023-11-21T03:31:44;7.20;;;2.40;;
70532;SDS011;58088;51.186;17.130;2023-11-21T03:34:16;6.50;;;1.50;;
70532;SDS011;58088;51.186;17.130;2023-11-21T03:36:45;5.00;;;1.80;;
70532;SDS011;58088;51.186;17.130;2023-11-21T03:39:12;5.60;;;2.40;;
70532;SDS011;58088;51.186;17.130;2023-11-21T03:41:38;7.60;;;2.30;;
70532;SDS011;58088;51.186;17.130;2023-11-21T03:44:05;9.10;;;2.70;;
70532;SDS011;58088;51.186;17.130;2023-11-21T03:46:31;6.70;;;2.00;;
70532;SDS011;58088;51.186;17.130;2023-11-21T03:48:57;7.30;;;2.40;;
70532;SDS011;58088;51.186;17.130;2023-11-21T03:51:23;7.80;;;2.80;;
70532;SDS011;58088;51.186;17.130;2023-11-21T03:53:49;6.60;;;2.10;;
70532;SDS011;58088;51.186;17.130;2023-11-21T03:56:15;6.10;;;2.20;;
70532;SDS011;58088;51.186;17.130;2023-11-21T03:58:41;5.70;;;1.50;;
70532;SDS011;58088;51.186;17.130;2023-11-21T04:01:08;7.90;;;2.40;;
70532;SDS011;58088;51.186;17.130;2023-11-21T04:03:34;5.60;;;2.30;;
70532;SDS011;58088;51.186;17.130;2023-11-21T04:06:01;6.20;;;2.30;;
70532;SDS011;58088;51.186;17.130;2023-11-21T04:08:27;6.40;;;2.60;;
70532;SDS011;58088;51.186;17.130;2023-11-21T04:10:54;8.70;;;3.20;;
70532;SDS011;58088;51.186;17.130;2023-11-21T04:13:20;6.30;;;2.50;;
70532;SDS011;58088;51.186;17.130;2023-11-21T04:15:46;7.10;;;3.00;;
70532;SDS011;58088;51.186;17.130;2023-11-21T04:18:13;8.90;;;2.20;;
70532;SDS011;58088;51.186;17.130;2023-11-21T04:20:39;7.40;;;2.10;;
70532;SDS011;58088;51.186;17.130;2023-11-21T04:23:06;9.70;;;3.20;;
70532;SDS011;58088;51.186;17.130;2023-11-21T04:25:32;8.90;;;3.20;;
70532;SDS011;58088;51.186;17.130;2023-11-21T04:27:58;7.40;;;2.30;;
70532;SDS011;58088;51.186;17.130;2023-11-21T04:30:24;8.00;;;3.10;;
70532;SDS011;58088;51.186;17.130;2023-11-21T04:32:51;6.40;;;2.30;;
70532;SDS011;58088;51.186;17.130;2023-11-21T04:35:17;6.60;;;2.50;;
70532;SDS011;58088;51.186;17.130;2023-11-21T04:37:43;7.90;;;3.40;;
70532;SDS011;58088;51.186;17.130;2023-11-21T04:40:10;6.50;;;2.80;;
70532;SDS011;58088;51.186;17.130;2023-11-21T04:42:37;5.10;;;2.00;;
70532;SDS011;58088;51.186;17.130;2023-11-21T04:45:05;6.60;;;2.60;;
70532;SDS011;58088;51.186;17.130;2023-11-21T04:47:35;10.30;;;2.80;;
70532;SDS011;58088;51.186;17.130;2023-11-21T04:50:03;8.00;;;2.50;;
70532;SDS011;58088;51.186;17.130;2023-11-21T04:52:30;7.30;;;2.70;;
70532;SDS011;58088;51.186;17.130;2023-11-21T04:54:56;6.30;;;2.40;;
70532;SDS011;58088;51.186;17.130;2023-11-21T04:57:24;5.80;;;1.90;;
70532;SDS011;58088;51.186;17.130;2023-11-21T04:59:50;6.90;;;2.30;;
70532;SDS011;58088;51.186;17.130;2023-11-21T05:02:16;11.00;;;5.00;;
70532;SDS011;58088;51.186;17.130;2023-11-21T05:04:45;8.80;;;3.00;;
70532;SDS011;58088;51.186;17.130;2023-11-21T05:07:11;8.10;;;2.50;;
70532;SDS011;58088;51.186;17.130;2023-11-21T05:09:44;8.00;;;3.30;;
70532;SDS011;58088;51.186;17.130;2023-11-21T05:12:12;7.60;;;2.40;;
70532;SDS011;58088;51.186;17.130;2023-11-21T05:14:40;7.90;;;2.40;;
70532;SDS011;58088;51.186;17.130;2023-11-21T05:17:07;8.10;;;2.50;;
70532;SDS011;58088;51.186;17.130;2023-11-21T05:19:34;5.80;;;2.40;;
70532;SDS011;58088;51.186;17.130;2023-11-21T05:22:01;7.40;;;2.90;;
70532;SDS011;58088;51.186;17.130;2023-11-21T05:24:27;6.70;;;2.40;;
70532;SDS011;58088;51.186;17.130;2023-11-21T05:26:54;5.30;;;1.90;;
70532;SDS011;58088;51.186;17.130;2023-11-21T05:29:21;5.90;;;2.00;;
70532;SDS011;58088;51.186;17.130;2023-11-21T05:31:48;6.10;;;2.50;;
70532;SDS011;58088;51.186;17.130;2023-11-21T05:34:14;5.90;;;2.10;;
70532;SDS011;58088;51.186;17.130;2023-11-21T05:36:43;5.80;;;2.50;;
70532;SDS011;58088;51.186;17.130;2023-11-21T05:39:11;6.90;;;2.50;;
70532;SDS011;58088;51.186;17.130;2023-11-21T05:41:38;5.70;;;1.70;;
70532;SDS011;58088;51.186;17.130;2023-11-21T05:44:04;7.20;;;2.60;;
70532;SDS011;58088;51.186;17.130;2023-11-21T05:46:30;6.80;;;1.90;;
70532;SDS011;58088;51.186;17.130;2023-11-21T05:48:57;6.40;;;2.40;;
70532;SDS011;58088;51.186;17.130;2023-11-21T05:51:22;5.80;;;2.30;;
70532;SDS011;58088;51.186;17.130;2023-11-21T05:53:50;4.70;;;1.80;;
70532;SDS011;58088;51.186;17.130;2023-11-21T05:56:16;5.40;;;2.60;;
70532;SDS011;58088;51.186;17.130;2023-11-21T05:58:43;6.60;;;2.60;;
70532;SDS011;58088;51.186;17.130;2023-11-21T06:01:10;5.50;;;1.80;;
70532;SDS011;58088;51.186;17.130;2023-11-21T06:03:38;5.70;;;2.40;;
70532;SDS011;58088;51.186;17.130;2023-11-21T06:06:05;6.40;;;2.60;;
70532;SDS011;58088;51.186;17.130;2023-11-21T06:08:32;6.10;;;2.80;;
70532;SDS011;58088;51.186;17.130;2023-11-21T06:10:58;6.10;;;2.80;;
70532;SDS011;58088;51.186;17.130;2023-11-21T06:13:24;5.60;;;2.20;;
70532;SDS011;58088;51.186;17.130;2023-11-21T06:15:51;6.00;;;2.40;;
70532;SDS011;58088;51.186;17.130;2023-11-21T06:18:17;7.20;;;2.50;;
70532;SDS011;58088;51.186;17.130;2023-11-21T06:20:45;7.70;;;3.20;;
70532;SDS011;58088;51.186;17.130;2023-11-21T06:23:12;7.00;;;2.90;;
70532;SDS011;58088;51.186;17.130;2023-11-21T06:25:38;7.00;;;2.70;;
70532;SDS011;58088;51.186;17.130;2023-11-21T06:28:05;7.30;;;2.70;;
70532;SDS011;58088;51.186;17.130;2023-11-21T06:30:31;8.60;;;3.10;;
70532;SDS011;58088;51.186;17.130;2023-11-21T06:32:57;7.00;;;3.10;;
70532;SDS011;58088;51.186;17.130;2023-11-21T06:35:25;7.50;;;2.90;;
70532;SDS011;58088;51.186;17.130;2023-11-21T06:37:53;7.00;;;2.60;;
70532;SDS011;58088;51.186;17.130;2023-11-21T06:40:19;6.80;;;2.60;;
70532;SDS011;58088;51.186;17.130;2023-11-21T06:42:45;9.10;;;3.30;;
70532;SDS011;58088;51.186;17.130;2023-11-21T06:45:12;7.60;;;2.60;;
70532;SDS011;58088;51.186;17.130;2023-11-21T06:47:39;6.60;;;2.60;;
70532;SDS011;58088;51.186;17.130;2023-11-21T06:50:05;6.40;;;2.70;;
70532;SDS011;58088;51.186;17.130;2023-11-21T06:52:33;8.50;;;3.40;;
70532;SDS011;58088;51.186;17.130;2023-11-21T06:54:59;7.80;;;3.30;;
70532;SDS011;58088;51.186;17.130;2023-11-21T06:57:25;6.10;;;2.50;;
70532;SDS011;58088;51.186;17.130;2023-11-21T06:59:51;7.90;;;2.70;;
70532;SDS011;58088;51.186;17.130;2023-11-21T07:02:17;7.60;;;2.90;;
70532;SDS011;58088;51.186;17.130;2023-11-21T07:04:46;8.60;;;3.20;;
70532;SDS011;58088;51.186;17.130;2023-11-21T07:07:12;8.80;;;3.40;;
70532;SDS011;58088;51.186;17.130;2023-11-21T07:09:39;6.80;;;2.80;;
70532;SDS011;58088;51.186;17.130;2023-11-21T07:12:05;9.80;;;3.50;;
70532;SDS011;58088;51.186;17.130;2023-11-21T07:14:34;9.30;;;3.30;;
70532;SDS011;58088;51.186;17.130;2023-11-21T07:17:00;8.40;;;3.20;;
70532;SDS011;58088;51.186;17.130;2023-11-21T07:19:26;8.00;;;3.10;;
70532;SDS011;58088;51.186;17.130;2023-11-21T07:21:53;8.50;;;3.30;;
70532;SDS011;58088;51.186;17.130;2023-11-21T07:24:19;6.30;;;2.00;;
70532;SDS011;58088;51.186;17.130;2023-11-21T07:26:45;8.30;;;3.30;;
70532;SDS011;58088;51.186;17.130;2023-11-21T07:29:11;5.90;;;2.70;;
70532;SDS011;58088;51.186;17.130;2023-11-21T07:31:39;9.70;;;3.40;;
70532;SDS011;58088;51.186;17.130;2023-11-21T07:34:07;8.10;;;3.30;;
70532;SDS011;58088;51.186;17.130;2023-11-21T07:36:34;8.50;;;3.70;;
70532;SDS011;58088;51.186;17.130;2023-11-21T07:39:00;7.40;;;3.20;;
70532;SDS011;58088;51.186;17.130;2023-11-21T07:41:28;9.50;;;3.60;;
70532;SDS011;58088;51.186;17.130;2023-11-21T07:43:55;8.10;;;3.30;;
70532;SDS011;58088;51.186;17.130;2023-11-21T07:46:21;10.40;;;4.20;;
70532;SDS011;58088;51.186;17.130;2023-11-21T07:48:48;9.60;;;3.50;;
70532;SDS011;58088;51.186;17.130;2023-11-21T07:51:14;8.90;;;3.60;;
70532;SDS011;58088;51.186;17.130;2023-11-21T07:53:40;9.00;;;4.50;;
70532;SDS011;58088;51.186;17.130;2023-11-21T07:56:07;10.50;;;4.80;;
70532;SDS011;58088;51.186;17.130;2023-11-21T07:58:35;10.20;;;4.00;;
70532;SDS011;58088;51.186;17.130;2023-11-21T08:01:03;9.50;;;4.10;;
70532;SDS011;58088;51.186;17.130;2023-11-21T08:03:30;8.10;;;3.60;;
70532;SDS011;58088;51.186;17.130;2023-11-21T08:05:57;10.40;;;4.00;;
70532;SDS011;58088;51.186;17.130;2023-11-21T08:08:29;7.60;;;3.70;;
70532;SDS011;58088;51.186;17.130;2023-11-21T08:10:55;9.20;;;4.20;;
70532;SDS011;58088;51.186;17.130;2023-11-21T08:13:25;9.20;;;4.30;;
70532;SDS011;58088;51.186;17.130;2023-11-21T08:15:56;8.70;;;3.80;;
70532;SDS011;58088;51.186;17.130;2023-11-21T08:18:24;9.50;;;4.60;;
70532;SDS011;58088;51.186;17.130;2023-11-21T08:20:50;11.40;;;4.80;;
70532;SDS011;58088;51.186;17.130;2023-11-21T08:23:16;9.90;;;4.70;;
70532;SDS011;58088;51.186;17.130;2023-11-21T08:25:43;6.20;;;3.10;;
70532;SDS011;58088;51.186;17.130;2023-11-21T08:28:10;9.40;;;3.60;;
70532;SDS011;58088;51.186;17.130;2023-11-21T08:30:36;9.30;;;4.30;;
70532;SDS011;58088;51.186;17.130;2023-11-21T08:33:03;10.10;;;4.00;;
70532;SDS011;58088;51.186;17.130;2023-11-21T08:35:30;8.90;;;3.80;;
70532;SDS011;58088;51.186;17.130;2023-11-21T08:37:57;9.50;;;4.10;;
70532;SDS011;58088;51.186;17.130;2023-11-21T08:40:23;8.10;;;3.70;;
70532;SDS011;58088;51.186;17.130;2023-11-21T08:42:49;9.70;;;3.90;;
70532;SDS011;58088;51.186;17.130;2023-11-21T08:45:18;9.10;;;4.00;;
70532;SDS011;58088;51.186;17.130;2023-11-21T08:47:45;8.00;;;3.30;;
70532;SDS011;58088;51.186;17.130;2023-11-21T08:50:12;7.80;;;2.80;;
70532;SDS011;58088;51.186;17.130;2023-11-21T08:52:39;9.70;;;3.70;;
70532;SDS011;58088;51.186;17.130;2023-11-21T08:55:07;8.30;;;3.70;;
70532;SDS011;58088;51.186;17.130;2023-11-21T08:57:38;8.20;;;3.40;;
70532;SDS011;58088;51.186;17.130;2023-11-21T09:00:07;7.50;;;3.30;;
70532;SDS011;58088;51.186;17.130;2023-11-21T09:02:41;8.50;;;3.00;;
70532;SDS011;58088;51.186;17.130;2023-11-21T09:05:09;10.10;;;3.90;;
70532;SDS011;58088;51.186;17.130;2023-11-21T09:07:38;8.00;;;3.30;;
70532;SDS011;58088;51.186;17.130;2023-11-21T09:10:07;7.60;;;3.20;;
70532;SDS011;58088;51.186;17.130;2023-11-21T09:12:36;8.40;;;3.40;;
70532;SDS011;58088;51.186;17.130;2023-11-21T09:15:07;8.20;;;3.40;;
70532;SDS011;58088;51.186;17.130;2023-11-21T09:17:35;7.20;;;3.20;;
70532;SDS011;58088;51.186;17.130;2023-11-21T09:20:03;9.30;;;3.60;;
70532;SDS011;58088;51.186;17.130;2023-11-21T09:22:32;8.10;;;3.50;;
70532;SDS011;58088;51.186;17.130;2023-11-21T09:24:59;10.20;;;3.50;;
70532;SDS011;58088;51.186;17.130;2023-11-21T09:27:25;6.90;;;3.20;;
70532;SDS011;58088;51.186;17.130;2023-11-21T09:29:51;10.40;;;3.60;;
70532;SDS011;58088;51.186;17.130;2023-11-21T09:32:19;6.50;;;3.00;;
70532;SDS011;58088;51.186;17.130;2023-11-21T09:34:50;8.20;;;3.70;;
70532;SDS011;58088;51.186;17.130;2023-11-21T09:37:17;8.60;;;3.70;;
70532;SDS011;58088;51.186;17.130;2023-11-21T09:39:43;14.70;;;6.80;;
70532;SDS011;58088;51.186;17.130;2023-11-21T09:42:15;17.70;;;7.40;;
70532;SDS011;58088;51.186;17.130;2023-11-21T09:44:55;20.80;;;9.20;;
70532;SDS011;58088;51.186;17.130;2023-11-21T09:47:27;22.80;;;11.50;;
70532;SDS011;58088;51.186;17.130;2023-11-21T09:49:54;21.30;;;9.90;;
70532;SDS011;58088;51.186;17.130;2023-11-21T09:52:25;19.90;;;9.30;;
70532;SDS011;58088;51.186;17.130;2023-11-21T09:54:53;20.10;;;9.20;;
70532;SDS011;58088;51.186;17.130;2023-11-21T09:57:21;19.70;;;8.70;;
70532;SDS011;58088;51.186;17.130;2023-11-21T09:59:53;23.20;;;10.30;;
70532;SDS011;58088;51.186;17.130;2023-11-21T10:02:26;22.40;;;10.20;;
70532;SDS011;58088;51.186;17.130;2023-11-21T10:04:55;21.50;;;9.60;;
70532;SDS011;58088;51.186;17.130;2023-11-21T10:07:22;21.80;;;10.10;;
70532;SDS011;58088;51.186;17.130;2023-11-21T10:09:51;16.80;;;8.50;;
70532;SDS011;58088;51.186;17.130;2023-11-21T10:12:17;20.40;;;9.30;;
70532;SDS011;58088;51.186;17.130;2023-11-21T10:14:48;17.60;;;8.40;;
70532;SDS011;58088;51.186;17.130;2023-11-21T10:17:16;19.80;;;9.20;;
70532;SDS011;58088;51.186;17.130;2023-11-21T10:19:47;20.60;;;9.10;;
70532;SDS011;58088;51.186;17.130;2023-11-21T10:22:14;23.40;;;9.20;;
70532;SDS011;58088;51.186;17.130;2023-11-21T10:24:41;22.40;;;10.00;;
70532;SDS011;58088;51.186;17.130;2023-11-21T10:27:09;23.60;;;11.50;;
70532;SDS011;58088;51.186;17.130;2023-11-21T10:29:35;26.00;;;11.60;;
70532;SDS011;58088;51.186;17.130;2023-11-21T10:32:02;25.70;;;11.60;;
70532;SDS011;58088;51.186;17.130;2023-11-21T10:34:29;24.70;;;11.80;;
70532;SDS011;58088;51.186;17.130;2023-11-21T10:36:55;26.40;;;11.80;;
70532;SDS011;58088;51.186;17.130;2023-11-21T10:39:24;24.70;;;11.20;;
70532;SDS011;58088;51.186;17.130;2023-11-21T10:41:56;31.20;;;14.10;;
70532;SDS011;58088;51.186;17.130;2023-11-21T10:44:22;23.80;;;11.30;;
70532;SDS011;58088;51.186;17.130;2023-11-21T10:46:51;33.70;;;14.70;;
70532;SDS011;58088;51.186;17.130;2023-11-21T10:49:22;34.70;;;14.70;;
70532;SDS011;58088;51.186;17.130;2023-11-21T10:51:51;33.90;;;13.80;;
70532;SDS011;58088;51.186;17.130;2023-11-21T10:54:25;32.70;;;13.30;;
70532;SDS011;58088;51.186;17.130;2023-11-21T10:57:00;29.70;;;12.90;;
70532;SDS011;58088;51.186;17.130;2023-11-21T10:59:29;29.50;;;12.20;;
70532;SDS011;58088;51.186;17.130;2023-11-21T11:01:57;29.90;;;12.50;;
70532;SDS011;58088;51.186;17.130;2023-11-21T11:04:27;32.80;;;13.10;;
70532;SDS011;58088;51.186;17.130;2023-11-21T11:06:55;26.30;;;12.60;;
70532;SDS011;58088;51.186;17.130;2023-11-21T11:09:23;30.10;;;14.10;;
70532;SDS011;58088;51.186;17.130;2023-11-21T11:11:51;29.30;;;13.10;;
70532;SDS011;58088;51.186;17.130;2023-11-21T11:14:18;30.50;;;13.60;;
70532;SDS011;58088;51.186;17.130;2023-11-21T11:16:45;27.00;;;12.40;;
70532;SDS011;58088;51.186;17.130;2023-11-21T11:19:11;33.20;;;13.70;;
70532;SDS011;58088;51.186;17.130;2023-11-21T11:28:04;27.50;;;11.80;;
70532;SDS011;58088;51.186;17.130;2023-11-21T11:31:09;26.20;;;11.10;;
70532;SDS011;58088;51.186;17.130;2023-11-21T11:36:36;23.20;;;10.40;;
70532;SDS011;58088;51.186;17.130;2023-11-21T11:39:28;21.90;;;9.60;;
70532;SDS011;58088;51.186;17.130;2023-11-21T11:42:06;23.20;;;9.90;;
70532;SDS011;58088;51.186;17.130;2023-11-21T11:47:31;18.60;;;8.20;;
70532;SDS011;58088;51.186;17.130;2023-11-21T11:50:04;26.40;;;10.70;;
70532;SDS011;58088;51.186;17.130;2023-11-21T11:52:47;23.90;;;9.80;;
70532;SDS011;58088;51.186;17.130;2023-11-21T11:55:17;17.10;;;7.80;;
70532;SDS011;58088;51.186;17.130;2023-11-21T11:57:47;19.60;;;9.10;;
70532;SDS011;58088;51.186;17.130;2023-11-21T12:02:56;22.60;;;10.00;;
70532;SDS011;58088;51.186;17.130;2023-11-21T12:05:26;19.70;;;9.60;;
70532;SDS011;58088;51.186;17.130;2023-11-21T12:08:03;17.60;;;8.90;;
70532;SDS011;58088;51.186;17.130;2023-11-21T12:10:31;18.50;;;8.90;;
70532;SDS011;58088;51.186;17.130;2023-11-21T12:13:03;22.50;;;9.80;;
70532;SDS011;58088;51.186;17.130;2023-11-21T12:15:33;14.40;;;6.70;;
70532;SDS011;58088;51.186;17.130;2023-11-21T12:18:01;17.50;;;7.70;;
70532;SDS011;58088;51.186;17.130;2023-11-21T12:20:27;17.80;;;8.50;;
70532;SDS011;58088;51.186;17.130;2023-11-21T12:22:59;29.20;;;12.60;;
70532;SDS011;58088;51.186;17.130;2023-11-21T12:25:27;48.80;;;15.90;;
70532;SDS011;58088;51.186;17.130;2023-11-21T12:27:55;20.10;;;8.80;;
70532;SDS011;58088;51.186;17.130;2023-11-21T12:30:25;30.10;;;10.20;;
70532;SDS011;58088;51.186;17.130;2023-11-21T12:32:59;33.50;;;11.20;;
70532;SDS011;58088;51.186;17.130;2023-11-21T12:35:33;23.60;;;8.70;;
70532;SDS011;58088;51.186;17.130;2023-11-21T12:38:02;22.70;;;8.70;;
70532;SDS011;58088;51.186;17.130;2023-11-21T12:40:29;18.70;;;8.60;;
70532;SDS011;58088;51.186;17.130;2023-11-21T12:42:57;21.40;;;8.50;;
70532;SDS011;58088;51.186;17.130;2023-11-21T12:45:26;16.10;;;6.90;;
70532;SDS011;58088;51.186;17.130;2023-11-21T12:47:55;17.40;;;7.30;;
70532;SDS011;58088;51.186;17.130;2023-11-21T12:50:26;19.30;;;8.00;;
70532;SDS011;58088;51.186;17.130;2023-11-21T12:53:02;18.00;;;7.90;;
70532;SDS011;58088;51.186;17.130;2023-11-21T12:55:37;19.30;;;8.50;;
70532;SDS011;58088;51.186;17.130;2023-11-21T12:58:08;21.20;;;8.90;;
70532;SDS011;58088;51.186;17.130;2023-11-21T13:00:37;17.30;;;8.20;;
70532;SDS011;58088;51.186;17.130;2023-11-21T13:03:07;21.60;;;9.50;;
70532;SDS011;58088;51.186;17.130;2023-11-21T13:05:37;19.60;;;9.00;;
70532;SDS011;58088;51.186;17.130;2023-11-21T13:08:05;17.90;;;8.00;;
70532;SDS011;58088;51.186;17.130;2023-11-21T13:10:39;18.60;;;8.70;;
70532;SDS011;58088;51.186;17.130;2023-11-21T13:13:09;14.70;;;7.30;;
70532;SDS011;58088;51.186;17.130;2023-11-21T13:15:51;15.10;;;6.40;;
70532;SDS011;58088;51.186;17.130;2023-11-21T13:18:28;24.20;;;11.60;;
70532;SDS011;58088;51.186;17.130;2023-11-21T13:20:55;19.90;;;10.20;;
70532;SDS011;58088;51.186;17.130;2023-11-21T13:23:22;23.50;;;9.90;;
70532;SDS011;58088;51.186;17.130;2023-11-21T13:25:49;20.50;;;9.00;;
70532;SDS011;58088;51.186;17.130;2023-11-21T13:28:16;23.00;;;9.80;;
70532;SDS011;58088;51.186;17.130;2023-11-21T13:30:44;22.50;;;10.50;;
70532;SDS011;58088;51.186;17.130;2023-11-21T13:33:10;30.40;;;12.50;;
70532;SDS011;58088;51.186;17.130;2023-11-21T13:35:44;49.20;;;14.00;;
70532;SDS011;58088;51.186;17.130;2023-11-21T13:38:18;28.00;;;11.10;;
70532;SDS011;58088;51.186;17.130;2023-11-21T13:40:52;18.50;;;7.00;;
70532;SDS011;58088;51.186;17.130;2023-11-21T13:43:24;13.70;;;6.20;;
70532;SDS011;58088;51.186;17.130;2023-11-21T13:45:53;15.70;;;7.20;;
70532;SDS011;58088;51.186;17.130;2023-11-21T13:48:44;22.60;;;10.10;;
70532;SDS011;58088;51.186;17.130;2023-11-21T13:51:16;32.20;;;12.10;;
70532;SDS011;58088;51.186;17.130;2023-11-21T13:53:47;28.10;;;12.00;;
70532;SDS011;58088;51.186;17.130;2023-11-21T13:56:16;27.10;;;10.50;;
70532;SDS011;58088;51.186;17.130;2023-11-21T13:58:50;27.60;;;10.90;;
70532;SDS011;58088;51.186;17.130;2023-11-21T14:01:24;30.30;;;12.50;;
70532;SDS011;58088;51.186;17.130;2023-11-21T14:03:58;26.30;;;10.60;;
70532;SDS011;58088;51.186;17.130;2023-11-21T14:06:47;22.50;;;9.00;;
70532;SDS011;58088;51.186;17.130;2023-11-21T14:09:18;25.60;;;10.10;;
70532;SDS011;58088;51.186;17.130;2023-11-21T14:11:52;28.10;;;12.60;;
70532;SDS011;58088;51.186;17.130;2023-11-21T14:14:20;21.90;;;10.40;;
70532;SDS011;58088;51.186;17.130;2023-11-21T14:16:47;19.00;;;8.40;;
70532;SDS011;58088;51.186;17.130;2023-11-21T14:19:14;30.20;;;11.10;;
70532;SDS011;58088;51.186;17.130;2023-11-21T14:21:44;18.20;;;7.80;;
70532;SDS011;58088;51.186;17.130;2023-11-21T14:24:11;21.70;;;9.50;;
70532;SDS011;58088;51.186;17.130;2023-11-21T14:26:45;25.80;;;11.30;;
70532;SDS011;58088;51.186;17.130;2023-11-21T14:29:16;15.10;;;7.70;;
70532;SDS011;58088;51.186;17.130;2023-11-21T14:31:48;15.00;;;6.70;;
70532;SDS011;58088;51.186;17.130;2023-11-21T14:34:14;16.70;;;7.60;;
70532;SDS011;58088;51.186;17.130;2023-11-21T14:36:41;16.10;;;7.70;;
70532;SDS011;58088;51.186;17.130;2023-11-21T14:39:08;15.20;;;7.70;;
70532;SDS011;58088;51.186;17.130;2023-11-21T14:41:36;15.40;;;7.90;;
70532;SDS011;58088;51.186;17.130;2023-11-21T14:44:04;34.10;;;12.50;;
70532;SDS011;58088;51.186;17.130;2023-11-21T14:46:33;16.40;;;7.20;;
70532;SDS011;58088;51.186;17.130;2023-11-21T14:49:00;15.90;;;7.00;;
70532;SDS011;58088;51.186;17.130;2023-11-21T14:51:50;20.80;;;9.40;;
70532;SDS011;58088;51.186;17.130;2023-11-21T14:54:30;18.60;;;8.50;;